Time;durP1;ratioP1;P1;durP2;ratioP2;P2;SDS_P1;SDS_P2;PMS_P1;PMS_P2;Temp;Humidity;BMP_temperature;BMP_pressure;BME280_temperature;BME280_humidity;BME280_pressure;Samples;Min_cycle;Max_cycle;Signal;HPM_P1;HPM_P2
2022/03/18 00:01:40;;;;;;;;;12.50;11.00;;;;;21.10;40.25;103285.81;5071245;28;54427;-46
2022/03/18 00:04:05;;;;;;;;;11.25;9.75;;;;;21.08;39.72;103282.38;5060486;27;51092;-50
2022/03/18 00:06:30;;;;;;;;;12.50;9.00;;;;;21.07;39.73;103277.91;5061507;28;51140;-47
2022/03/18 00:08:56;;;;;;;;;10.00;10.00;;;;;21.06;40.03;103278.94;5061710;28;50926;-48
2022/03/18 00:11:21;;;;;;;;;10.25;9.00;;;;;21.06;39.90;103280.84;5062562;27;52260;-47
2022/03/18 00:13:46;;;;;;;;;11.25;11.25;;;;;21.02;40.06;103277.53;5066931;28;51752;-44
2022/03/18 00:16:12;;;;;;;;;12.50;9.25;;;;;21.02;39.60;103277.53;5076946;27;51028;-44
2022/03/18 00:18:37;;;;;;;;;9.50;9.25;;;;;21.00;39.84;103277.69;5065788;27;50900;-47
2022/03/18 00:21:03;;;;;;;;;9.25;9.25;;;;;21.00;39.66;103276.84;5065198;28;51108;-46
2022/03/18 00:23:28;;;;;;;;;9.75;9.75;;;;;20.96;39.95;103272.72;5069609;28;51567;-48
2022/03/18 00:25:54;;;;;;;;;9.25;7.75;;;;;20.96;39.85;103279.09;5064538;27;51138;-45
2022/03/18 00:28:19;;;;;;;;;8.25;6.50;;;;;20.95;39.93;103270.97;5062337;28;51294;-47
2022/03/18 00:30:45;;;;;;;;;10.00;8.00;;;;;20.94;39.73;103283.00;5061895;27;51909;-49
2022/03/18 00:33:10;;;;;;;;;8.50;8.00;;;;;20.91;39.42;103284.22;5060268;28;51159;-51
2022/03/18 00:35:35;;;;;;;;;9.00;7.50;;;;;20.91;39.81;103284.22;5070366;27;51216;-50
2022/03/18 00:38:02;;;;;;;;;8.50;7.50;;;;;20.90;39.50;103287.13;5067605;28;51275;-48
2022/03/18 00:40:27;;;;;;;;;5.25;3.25;;;;;20.90;39.21;103295.41;5067329;28;51422;-49
2022/03/18 00:42:52;;;;;;;;;8.50;7.75;;;;;20.89;39.41;103296.44;5060854;28;51119;-49
2022/03/18 00:45:18;;;;;;;;;11.50;8.25;;;;;20.87;39.36;103301.25;5069473;27;51242;-47
2022/03/18 00:53:11;;;;;;;;;8.00;8.00;;;;;20.83;39.26;103300.69;5059371;28;51429;-47
2022/03/18 00:55:36;;;;;;;;;8.00;7.25;;;;;20.83;39.09;103299.84;5074826;27;51211;-48
2022/03/18 00:58:02;;;;;;;;;8.50;7.50;;;;;20.80;39.52;103298.28;5063004;28;51029;-51
2022/03/18 01:00:27;;;;;;;;;8.00;6.75;;;;;20.79;39.18;103299.31;5061305;27;51862;-47
2022/03/18 01:02:52;;;;;;;;;10.25;7.25;;;;;20.79;38.97;103292.94;5067132;28;51043;-47
2022/03/18 01:05:18;;;;;;;;;7.50;7.00;;;;;20.76;38.97;103288.66;5065584;28;51136;-46
2022/03/18 01:07:43;;;;;;;;;7.00;7.00;;;;;20.75;39.03;103295.19;5062937;28;51367;-49
2022/03/18 01:10:09;;;;;;;;;9.25;7.50;;;;;20.74;38.98;103288.81;5060573;27;51031;-48
2022/03/18 01:12:35;;;;;;;;;9.25;8.50;;;;;20.74;39.21;103293.47;5057404;27;51506;-46
2022/03/18 01:15:00;;;;;;;;;10.75;9.00;;;;;20.73;38.90;103292.56;5067162;28;51379;-46
2022/03/18 01:17:25;;;;;;;;;9.00;7.50;;;;;20.72;39.26;103298.25;5059215;28;51392;-46
2022/03/18 01:19:51;;;;;;;;;8.75;6.50;;;;;20.71;38.93;103291.00;5060612;28;51679;-46
2022/03/18 01:22:16;;;;;;;;;11.00;9.25;;;;;20.70;39.09;103300.31;5059722;28;51160;-47
2022/03/18 01:24:41;;;;;;;;;7.50;7.50;;;;;20.69;39.10;103304.09;5063362;28;50916;-49
2022/03/18 01:27:07;;;;;;;;;9.75;7.50;;;;;20.67;38.86;103297.88;5064209;28;51118;-45
2022/03/18 01:29:33;;;;;;;;;9.75;8.75;;;;;20.67;39.31;103308.91;5071297;27;51174;-52
2022/03/18 01:32:00;;;;;;;;;8.00;7.00;;;;;20.66;38.86;103310.81;5061445;28;51067;-45
2022/03/18 01:34:25;;;;;;;;;10.50;8.50;;;;;20.65;38.77;103302.72;5058177;27;51211;-48
2022/03/18 01:36:51;;;;;;;;;7.50;7.50;;;;;20.64;39.14;103301.84;5060317;28;51045;-46
2022/03/18 01:39:16;;;;;;;;;10.50;8.75;;;;;20.63;38.64;103305.59;5063289;28;52291;-50
2022/03/18 01:41:42;;;;;;;;;10.75;9.00;;;;;20.63;38.62;103307.50;5064901;28;51099;-48
2022/03/18 01:44:12;;;;;;;;;10.50;8.75;;;;;20.63;38.84;103299.22;5064061;28;51323;-45
2022/03/18 01:46:37;;;;;;;;;10.25;7.25;;;;;20.61;39.23;103302.16;5059416;28;51680;-47
2022/03/18 01:49:04;;;;;;;;;7.00;7.00;;;;;20.61;39.16;103304.03;5063000;28;51178;-45
2022/03/18 01:51:29;;;;;;;;;9.00;7.75;;;;;20.59;39.21;103303.34;5061433;28;51468;-46
2022/03/18 01:54:44;;;;;;;;;7.50;6.50;;;;;20.58;38.60;103309.88;5056951;28;51094;-45
2022/03/18 01:56:40;;;;;;;;;10.25;8.50;;;;;20.59;38.93;103311.63;5067280;28;51064;-47
2022/03/18 01:59:06;;;;;;;;;9.75;4.75;;;;;20.58;38.60;103316.25;5058215;27;51202;-47
2022/03/18 02:01:32;;;;;;;;;7.75;7.00;;;;;20.58;38.99;103316.25;5063465;28;51100;-46
2022/03/18 02:03:58;;;;;;;;;8.00;8.00;;;;;20.57;39.01;103300.75;5059497;27;51028;-49
2022/03/18 02:06:23;;;;;;;;;9.50;9.25;;;;;20.57;39.20;103309.03;5058382;28;51258;-51
2022/03/18 02:08:48;;;;;;;;;11.00;8.00;;;;;20.56;38.63;103299.03;5063023;28;51300;-47
2022/03/18 02:11:14;;;;;;;;;8.00;6.50;;;;;20.56;38.90;103309.19;5068843;27;51121;-50
2022/03/18 02:13:39;;;;;;;;;8.75;7.25;;;;;20.55;39.03;103301.97;5069815;28;50997;-50
2022/03/18 02:16:05;;;;;;;;;7.00;6.25;;;;;20.55;38.75;103299.22;5071863;28;51040;-47
2022/03/18 02:18:30;;;;;;;;;12.00;6.75;;;;;20.53;38.96;103296.63;5066593;28;51841;-46
2022/03/18 02:20:56;;;;;;;;;7.50;7.50;;;;;20.52;38.89;103313.28;5061289;28;52649;-48
2022/03/18 02:23:21;;;;;;;;;11.00;8.50;;;;;20.52;39.08;103313.28;5058745;28;51049;-47
2022/03/18 02:25:47;;;;;;;;;8.00;7.00;;;;;20.50;39.11;103312.59;5061282;27;51096;-49
2022/03/18 02:28:13;;;;;;;;;8.00;7.75;;;;;20.49;38.93;103316.38;5067674;28;51147;-47
2022/03/18 02:30:38;;;;;;;;;9.00;7.00;;;;;20.48;39.08;103318.25;5067167;27;51170;-48
2022/03/18 02:33:04;;;;;;;;;6.25;6.25;;;;;20.47;39.24;103313.78;5060455;28;51136;-47
2022/03/18 02:35:29;;;;;;;;;7.25;7.25;;;;;20.45;38.74;103302.94;5061256;28;51078;-48
2022/03/18 02:37:59;;;;;;;;;8.75;7.75;;;;;20.45;38.59;103302.94;5067435;27;52393;-47
2022/03/18 02:40:26;;;;;;;;;9.50;8.00;;;;;20.44;38.73;103303.97;5071307;28;51026;-45
2022/03/18 02:42:51;;;;;;;;;7.75;7.00;;;;;20.44;38.76;103286.59;5058028;27;51171;-50
2022/03/18 02:45:17;;;;;;;;;11.25;10.00;;;;;20.43;39.23;103290.38;5057928;28;51425;-49
2022/03/18 02:47:42;;;;;;;;;8.50;7.00;;;;;20.42;38.76;103294.09;5057449;28;51874;-47
2022/03/18 02:50:08;;;;;;;;;7.50;7.25;;;;;20.41;38.78;103295.13;5056020;27;51168;-48
2022/03/18 02:52:34;;;;;;;;;9.50;6.25;;;;;20.40;38.87;103296.16;5057449;28;51203;-46
2022/03/18 02:54:59;;;;;;;;;9.00;8.00;;;;;20.39;38.57;103303.53;5067086;28;51166;-50
2022/03/18 02:57:25;;;;;;;;;5.75;5.00;;;;;20.38;38.46;103299.06;5060612;27;51995;-51
2022/03/18 02:59:50;;;;;;;;;6.25;6.25;;;;;20.38;38.97;103299.06;5058117;28;51061;-46
2022/03/18 03:02:16;;;;;;;;;7.50;7.50;;;;;20.37;38.63;103302.84;5055078;28;51382;-46
2022/03/18 03:07:59;;;;;;;;;5.25;5.00;;;;;20.35;38.64;103295.78;5065626;28;51324;-45
2022/03/18 03:10:11;;;;;;;;;7.25;7.25;;;;;20.34;38.99;103300.44;5056296;28;51175;-46
2022/03/18 03:12:38;;;;;;;;;9.75;8.25;;;;;20.33;38.69;103304.22;5054998;28;51030;-45
2022/03/18 03:15:04;;;;;;;;;8.00;7.50;;;;;20.33;38.50;103308.88;5066019;27;51236;-49
2022/03/18 03:17:29;;;;;;;;;11.75;9.50;;;;;20.32;38.68;103319.00;5055963;28;51096;-46
2022/03/18 03:19:56;;;;;;;;;10.00;7.00;;;;;20.32;38.51;103312.59;5058341;27;51088;-45
2022/03/18 03:22:21;;;;;;;;;9.75;9.00;;;;;20.32;38.62;103318.13;5064219;28;51062;-45
2022/03/18 03:24:47;;;;;;;;;9.00;5.50;;;;;20.30;38.72;103321.03;5064300;28;51733;-47
2022/03/18 03:27:12;;;;;;;;;9.75;7.50;;;;;20.31;38.74;103332.91;5055042;28;51948;-50
2022/03/18 03:29:38;;;;;;;;;8.75;8.75;;;;;20.29;38.52;103330.31;5068561;27;51261;-47
2022/03/18 03:32:04;;;;;;;;;7.25;7.00;;;;;20.29;38.93;103335.81;5069767;27;51035;-45
2022/03/18 03:34:29;;;;;;;;;7.50;7.50;;;;;20.30;38.33;103342.19;5059603;27;51203;-45
2022/03/18 03:36:55;;;;;;;;;9.50;9.00;;;;;20.28;38.45;103336.00;5059417;28;51810;-44
2022/03/18 03:39:20;;;;;;;;;7.00;7.00;;;;;20.26;38.72;103332.53;5059309;28;51127;-48
2022/03/18 03:41:46;;;;;;;;;10.25;9.75;;;;;20.26;38.58;103335.28;5060412;27;51252;-44
2022/03/18 03:44:12;;;;;;;;;10.50;9.75;;;;;20.25;38.35;103331.69;5057027;28;51086;-47
2022/03/18 03:46:37;;;;;;;;;8.50;7.50;;;;;20.24;38.83;103329.09;5061863;28;52013;-46
2022/03/18 03:49:02;;;;;;;;;9.50;9.50;;;;;20.23;38.33;103328.22;5058105;28;51225;-46
2022/03/18 03:51:28;;;;;;;;;8.25;7.25;;;;;20.23;38.32;103330.97;5060641;28;50934;-46
2022/03/18 03:53:53;;;;;;;;;7.50;7.50;;;;;20.22;38.75;103329.25;5066205;28;51004;-45
2022/03/18 03:56:19;;;;;;;;;7.75;7.00;;;;;20.22;38.36;103332.00;5075203;27;51129;-45
2022/03/18 03:58:44;;;;;;;;;10.75;9.50;;;;;20.20;38.62;103339.53;5060970;28;51267;-44
2022/03/18 04:01:09;;;;;;;;;9.25;7.25;;;;;20.21;38.61;103343.16;5072819;28;50969;-45
2022/03/18 04:03:35;;;;;;;;;10.50;7.75;;;;;20.18;38.61;103342.47;5068504;28;51229;-48
2022/03/18 04:06:01;;;;;;;;;7.75;7.50;;;;;20.20;38.51;103345.03;5076617;27;51689;-46
2022/03/18 04:08:26;;;;;;;;;9.25;9.00;;;;;20.18;38.73;103345.22;5075429;28;51322;-47
2022/03/18 04:10:54;;;;;;;;;10.25;9.00;;;;;20.18;38.46;103350.72;5068356;27;51022;-50
2022/03/18 04:13:20;;;;;;;;;6.50;5.25;;;;;20.17;38.59;103349.00;5057683;28;51020;-45
2022/03/18 04:15:47;;;;;;;;;14.00;9.25;;;;;20.16;38.40;103362.91;5057553;28;51758;-43
2022/03/18 04:18:12;;;;;;;;;12.25;8.75;;;;;20.14;38.30;103343.81;5061758;28;51414;-46
2022/03/18 04:20:38;;;;;;;;;9.75;7.50;;;;;20.13;38.27;103347.59;5068419;27;51164;-45
2022/03/18 04:23:03;;;;;;;;;9.00;7.75;;;;;20.13;38.40;103350.34;5060826;28;51424;-46
2022/03/18 04:25:30;;;;;;;;;8.00;7.00;;;;;20.13;38.54;103350.34;5089713;27;53654;-46
2022/03/18 04:27:56;;;;;;;;;10.50;8.00;;;;;20.12;38.71;103356.00;5060515;28;51400;-50
2022/03/18 04:30:21;;;;;;;;;10.00;8.75;;;;;20.12;38.33;103361.50;5063713;27;51072;-47
2022/03/18 04:32:47;;;;;;;;;7.00;7.00;;;;;20.11;38.26;103368.91;5058134;28;51110;-45
2022/03/18 04:35:12;;;;;;;;;8.25;7.50;;;;;20.11;38.30;103371.66;5069400;28;51049;-45
2022/03/18 04:37:39;;;;;;;;;7.00;6.25;;;;;20.10;38.04;103367.16;5061024;27;51455;-49
2022/03/18 04:40:06;;;;;;;;;7.00;7.00;;;;;20.10;38.32;103375.41;5057309;28;51162;-47
2022/03/18 04:42:31;;;;;;;;;7.75;6.50;;;;;20.09;38.03;103375.56;5069492;28;51222;-49
2022/03/18 04:44:57;;;;;;;;;9.00;8.00;;;;;20.09;38.51;103383.81;5057153;28;51162;-44
2022/03/18 04:47:22;;;;;;;;;11.50;9.50;;;;;20.08;38.10;103382.97;5065597;28;51164;-44
2022/03/18 04:49:47;;;;;;;;;9.50;8.75;;;;;20.07;38.32;103385.88;5057420;28;51122;-47
2022/03/18 04:52:13;;;;;;;;;7.00;7.00;;;;;20.07;38.41;103385.88;5066936;28;51413;-45
2022/03/18 04:54:38;;;;;;;;;7.25;7.25;;;;;20.06;38.13;103381.41;5058069;28;52094;-46
2022/03/18 04:57:16;;;;;;;;;8.75;7.25;;;;;20.05;38.24;103379.66;5056809;28;51233;-47
2022/03/18 04:59:42;;;;;;;;;5.25;5.25;;;;;20.04;38.07;103378.81;5071152;28;51208;-47
2022/03/18 05:02:12;;;;;;;;;9.50;6.75;;;;;20.04;38.43;103386.19;5065486;28;51066;-47
2022/03/18 05:04:38;;;;;;;;;7.50;6.00;;;;;20.03;37.88;103379.84;5056958;28;51000;-47
2022/03/18 05:07:06;;;;;;;;;7.00;7.00;;;;;20.02;38.37;103380.88;5061305;28;51239;-44
2022/03/18 05:09:32;;;;;;;;;7.00;7.00;;;;;20.02;37.98;103383.63;5056475;28;51128;-43
2022/03/18 05:11:57;;;;;;;;;6.25;6.25;;;;;20.01;38.47;103386.50;5068474;28;51060;-45
2022/03/18 05:14:23;;;;;;;;;7.25;6.00;;;;;20.01;38.29;103390.16;5064477;28;51916;-45
2022/03/18 05:16:49;;;;;;;;;7.25;7.25;;;;;20.01;38.40;103403.00;5056763;28;51342;-48
2022/03/18 05:19:15;;;;;;;;;6.75;6.75;;;;;19.99;38.33;103405.91;5056748;28;51104;-46
2022/03/18 05:21:41;;;;;;;;;6.75;6.50;;;;;19.99;38.27;103403.16;5067603;28;52621;-48
2022/03/18 05:24:06;;;;;;;;;6.75;6.75;;;;;19.99;38.03;103405.91;5073206;28;52632;-48
2022/03/18 05:26:32;;;;;;;;;6.25;6.00;;;;;19.98;38.20;103408.84;5071021;27;51111;-49
2022/03/18 05:28:58;;;;;;;;;8.00;7.00;;;;;19.98;37.78;103415.19;5069481;27;51167;-49
2022/03/18 05:31:25;;;;;;;;;7.75;5.75;;;;;19.97;38.04;103413.47;5064980;27;51057;-45
2022/03/18 05:33:51;;;;;;;;;7.00;7.00;;;;;19.97;38.10;103415.34;5070765;28;52349;-44
2022/03/18 05:36:16;;;;;;;;;7.00;6.00;;;;;19.96;38.28;103414.50;5072449;27;51078;-47
2022/03/18 05:38:42;;;;;;;;;7.00;7.00;;;;;19.97;38.03;103418.09;5073010;28;51049;-44
2022/03/18 05:41:07;;;;;;;;;7.00;4.75;;;;;19.96;38.06;103421.88;5067045;28;51207;-43
2022/03/18 05:43:33;;;;;;;;;6.00;5.75;;;;;19.95;38.14;103434.78;5064340;28;51133;-48
2022/03/18 05:45:58;;;;;;;;;8.00;6.75;;;;;19.94;37.95;103424.78;5072294;28;51012;-45
2022/03/18 05:48:24;;;;;;;;;7.25;7.25;;;;;19.93;38.00;103416.72;5057042;27;51077;-44
2022/03/18 05:50:49;;;;;;;;;6.25;5.75;;;;;19.92;37.92;103432.34;5061137;28;51278;-44
2022/03/18 05:53:14;;;;;;;;;7.75;7.75;;;;;19.93;38.05;103430.47;5071911;28;51894;-45
2022/03/18 05:58:24;;;;;;;;;7.00;7.00;;;;;19.91;38.09;103425.13;5057412;28;51136;-44
2022/03/18 06:00:50;;;;;;;;;5.75;4.00;;;;;19.91;37.84;103425.13;5061500;28;51020;-47
2022/03/18 06:03:16;;;;;;;;;8.00;6.00;;;;;19.90;37.74;103420.63;5073351;28;52917;-44
2022/03/18 06:05:42;;;;;;;;;6.00;6.00;;;;;19.89;37.80;103427.13;5075946;27;52457;-44
2022/03/18 06:13:59;;;;;;;;;18.25;15.75;;;;;19.87;36.52;103456.69;5073235;27;51437;-46
2022/03/18 06:16:24;;;;;;;;;17.75;14.75;;;;;19.85;36.28;103461.50;5063311;27;51155;-44
2022/03/18 06:18:50;;;;;;;;;23.00;18.75;;;;;19.82;35.79;103459.06;5071328;28;51149;-50
2022/03/18 06:21:16;;;;;;;;;22.75;18.00;;;;;19.76;35.06;103463.28;5062442;27;51109;-46
2022/03/18 06:23:42;;;;;;;;;15.25;14.25;;;;;19.74;35.08;103447.97;5057885;28;51915;-43
2022/03/18 06:26:07;;;;;;;;;17.50;16.25;;;;;19.67;34.85;103455.94;5075485;27;51121;-44
2022/03/18 06:28:33;;;;;;;;;19.25;17.50;;;;;19.63;34.47;103457.28;5076131;27;51060;-45
2022/03/18 06:30:59;;;;;;;;;21.25;18.75;;;;;19.57;34.54;103453.25;5061147;27;51195;-47
2022/03/18 06:33:24;;;;;;;;;16.75;16.75;;;;;19.53;33.83;103461.94;5067965;28;51817;-43
2022/03/18 06:35:49;;;;;;;;;23.50;19.00;;;;;19.48;33.92;103459.63;5063842;27;51226;-43
2022/03/18 06:38:15;;;;;;;;;22.25;20.50;;;;;19.43;34.12;103456.50;5061952;28;51180;-48
2022/03/18 06:40:40;;;;;;;;;19.25;15.75;;;;;19.40;33.52;103456.81;5067874;27;50996;-44
2022/03/18 06:43:06;;;;;;;;;20.25;15.75;;;;;19.41;33.58;103460.44;5066941;28;51183;-45
2022/03/18 06:45:31;;;;;;;;;16.75;15.75;;;;;19.46;33.89;103460.81;5066228;27;51152;-44
2022/03/18 06:47:57;;;;;;;;;15.25;15.00;;;;;19.53;34.07;103453.69;5061572;28;52293;-45
2022/03/18 06:50:24;;;;;;;;;15.75;14.75;;;;;19.60;33.75;103449.34;5056107;28;51162;-48
2022/03/18 06:52:50;;;;;;;;;16.00;12.75;;;;;19.69;33.93;103442.03;5065003;28;52596;-46
2022/03/18 06:55:15;;;;;;;;;15.25;11.25;;;;;19.77;33.97;103433.91;5063612;28;51136;-45
2022/03/18 06:57:42;;;;;;;;;12.25;9.50;;;;;19.85;34.24;103442.25;5060567;28;51146;-49
2022/03/18 07:00:08;;;;;;;;;13.25;12.75;;;;;19.93;34.11;103444.22;5066315;27;50977;-48
2022/03/18 07:02:34;;;;;;;;;12.75;10.75;;;;;20.00;34.67;103437.91;5059291;27;51167;-45
2022/03/18 07:04:59;;;;;;;;;14.50;10.50;;;;;20.09;34.69;103439.72;5061516;27;52884;-45
2022/03/18 07:07:24;;;;;;;;;10.25;8.50;;;;;20.17;35.12;103444.44;5070908;28;50966;-47
2022/03/18 07:09:50;;;;;;;;;12.25;9.50;;;;;20.21;34.84;103437.59;5074716;27;51380;-47
2022/03/18 07:12:16;;;;;;;;;11.25;8.25;;;;;20.31;34.76;103443.00;5069108;28;51281;-45
2022/03/18 07:14:42;;;;;;;;;10.50;10.00;;;;;20.38;35.17;103444.13;5056060;27;51162;-47
2022/03/18 07:19:52;;;;;;;;;11.00;7.25;;;;;20.55;35.35;103446.03;5066162;28;50994;-46
2022/03/18 07:22:18;;;;;;;;;9.25;9.25;;;;;20.62;35.15;103446.22;5069739;28;52901;-46
2022/03/18 07:24:44;;;;;;;;;9.00;9.00;;;;;20.70;35.16;103447.16;5063900;27;50994;-49
2022/03/18 07:27:09;;;;;;;;;9.00;8.00;;;;;20.78;34.81;103449.09;5066707;27;51324;-50
2022/03/18 07:29:35;;;;;;;;;7.50;6.75;;;;;20.86;35.70;103449.16;5064176;27;51129;-49
2022/03/18 07:32:00;;;;;;;;;9.00;7.75;;;;;20.90;36.07;103450.56;5057743;28;51229;-46
2022/03/18 07:34:25;;;;;;;;;6.75;6.75;;;;;20.94;35.95;103451.09;5062868;27;51100;-48
2022/03/18 07:36:51;;;;;;;;;6.75;6.75;;;;;20.93;36.38;103447.47;5067878;27;52055;-45
2022/03/18 07:39:16;;;;;;;;;9.75;8.25;;;;;20.90;36.58;103452.44;5061422;28;51152;-50
2022/03/18 07:41:42;;;;;;;;;6.25;6.00;;;;;20.86;36.99;103453.81;5066313;28;51976;-45
2022/03/18 07:44:07;;;;;;;;;13.75;8.75;;;;;20.82;36.77;103456.00;5065438;28;51387;-50
2022/03/18 07:46:33;;;;;;;;;11.00;6.50;;;;;20.78;37.25;103453.75;5059557;28;51043;-49
2022/03/18 07:48:58;;;;;;;;;8.75;7.50;;;;;20.75;37.30;103455.81;5058804;28;51179;-45
2022/03/18 07:51:24;;;;;;;;;7.50;7.25;;;;;20.72;37.27;103458.88;5057610;28;51158;-51
2022/03/18 07:53:49;;;;;;;;;7.75;7.50;;;;;20.70;37.44;103463.69;5061878;27;51345;-49
2022/03/18 07:56:14;;;;;;;;;10.00;9.25;;;;;20.69;37.04;103458.34;5070860;27;51159;-46
2022/03/18 07:58:40;;;;;;;;;11.00;9.00;;;;;20.71;36.87;103465.41;5070358;28;51150;-47
2022/03/18 08:01:05;;;;;;;;;10.00;10.00;;;;;20.77;37.35;103460.28;5063396;27;52044;-49
2022/03/18 08:03:31;;;;;;;;;12.50;9.00;;;;;20.77;36.78;103469.41;5064138;27;51280;-51
2022/03/18 08:05:56;;;;;;;;;8.25;8.25;;;;;20.78;36.92;103459.25;5065682;27;51309;-49
2022/03/18 08:08:22;;;;;;;;;6.50;6.25;;;;;20.75;37.00;103464.06;5070494;27;51353;-48
2022/03/18 08:10:48;;;;;;;;;10.25;8.25;;;;;20.75;37.55;103455.81;5069646;27;51867;-47
2022/03/18 08:13:14;;;;;;;;;9.25;7.00;;;;;20.75;37.17;103461.31;5074960;27;51144;-47
2022/03/18 08:15:39;;;;;;;;;5.50;5.50;;;;;20.75;37.47;103465.97;5062865;27;52320;-47
2022/03/18 08:18:08;;;;;;;;;10.50;8.50;;;;;20.73;37.21;103455.09;5061715;28;51239;-44
2022/03/18 08:20:39;;;;;;;;;9.00;8.25;;;;;20.74;37.05;103467.00;5061621;27;51354;-44
2022/03/18 08:23:04;;;;;;;;;8.50;7.00;;;;;20.72;37.18;103474.53;5073192;27;51372;-45
2022/03/18 08:25:30;;;;;;;;;8.50;7.75;;;;;20.72;37.30;103474.53;5063189;28;51159;-48
2022/03/18 08:27:55;;;;;;;;;10.75;9.75;;;;;20.72;37.72;103485.53;5063903;28;51183;-46
2022/03/18 08:30:20;;;;;;;;;8.00;5.50;;;;;20.71;37.67;103490.19;5068166;27;51948;-49
2022/03/18 08:32:46;;;;;;;;;7.50;7.50;;;;;20.70;37.07;103474.69;5056954;28;51071;-49
2022/03/18 08:35:11;;;;;;;;;7.25;7.25;;;;;20.70;37.15;103477.44;5067615;28;51327;-49
2022/03/18 08:40:21;;;;;;;;;6.50;6.25;;;;;20.69;37.66;103483.97;5057751;28;51055;-46
2022/03/18 08:42:46;;;;;;;;;6.00;6.00;;;;;20.68;37.20;103476.75;5070416;28;51050;-50
2022/03/18 08:45:12;;;;;;;;;8.25;6.50;;;;;20.67;37.75;103471.41;5057981;28;51006;-48
2022/03/18 08:47:37;;;;;;;;;9.00;9.00;;;;;20.65;37.56;103477.09;5058720;28;51104;-48
2022/03/18 08:50:04;;;;;;;;;7.75;7.75;;;;;20.63;37.43;103469.97;5080390;27;52906;-50
2022/03/18 08:52:29;;;;;;;;;7.25;6.00;;;;;20.61;37.79;103470.16;5058961;28;51143;-48
2022/03/18 08:54:55;;;;;;;;;6.25;6.00;;;;;20.60;37.49;103465.66;5069199;27;51024;-47
2022/03/18 08:57:20;;;;;;;;;7.00;6.25;;;;;20.59;37.74;103476.84;5066076;27;51341;-48
2022/03/18 08:59:45;;;;;;;;;6.00;6.00;;;;;20.60;37.91;103478.56;5065866;28;51493;-46
2022/03/18 09:02:11;;;;;;;;;5.75;5.75;;;;;20.60;37.96;103476.69;5058902;28;51170;-50
2022/03/18 09:04:36;;;;;;;;;6.00;4.50;;;;;20.61;37.82;103478.41;5064099;28;51291;-46
2022/03/18 09:07:02;;;;;;;;;6.50;4.50;;;;;20.61;37.48;103478.41;5066828;28;51053;-45
2022/03/18 09:09:27;;;;;;;;;5.00;5.00;;;;;20.64;38.08;103482.75;5069822;27;53382;-48
2022/03/18 09:11:54;;;;;;;;;4.75;3.50;;;;;20.65;37.94;103482.59;5070323;27;51365;-47
2022/03/18 09:14:20;;;;;;;;;5.75;4.25;;;;;20.67;37.99;103488.78;5064031;28;51038;-45
2022/03/18 09:16:47;;;;;;;;;4.00;4.00;;;;;20.70;38.13;103480.19;5057413;28;51394;-49
2022/03/18 09:19:12;;;;;;;;;4.75;4.75;;;;;20.73;37.88;103481.75;5067822;27;51013;-46
2022/03/18 09:21:38;;;;;;;;;5.25;4.50;;;;;20.74;37.39;103472.50;5056381;28;50952;-47
2022/03/18 09:24:03;;;;;;;;;7.00;5.00;;;;;20.78;38.02;103484.06;5063155;28;51030;-49
2022/03/18 09:26:29;;;;;;;;;5.75;4.50;;;;;20.80;37.68;103484.75;5073902;28;51113;-45
2022/03/18 09:28:54;;;;;;;;;7.50;4.00;;;;;20.83;37.39;103487.16;5078488;27;51200;-50
2022/03/18 09:31:20;;;;;;;;;4.75;4.75;;;;;20.85;37.83;103488.78;5069239;27;51102;-48
2022/03/18 09:33:46;;;;;;;;;4.50;3.25;;;;;20.88;37.56;103479.31;5073249;27;51297;-48
2022/03/18 09:36:17;;;;;;;;;4.75;4.00;;;;;20.90;37.42;103480.88;5065646;27;51089;-51
2022/03/18 09:38:43;;;;;;;;;5.00;5.00;;;;;20.92;37.84;103484.31;5054305;28;51103;-47
2022/03/18 09:41:09;;;;;;;;;5.00;5.00;;;;;20.97;37.42;103478.34;5068245;28;51533;-48
2022/03/18 09:43:36;;;;;;;;;3.25;3.25;;;;;20.99;37.41;103482.66;5060344;27;51165;-45
2022/03/18 09:46:08;;;;;;;;;3.00;3.00;;;;;21.02;37.48;103482.31;5065274;28;51024;-49
2022/03/18 09:48:35;;;;;;;;;3.00;3.00;;;;;21.05;37.83;103486.66;5054807;28;51865;-50
2022/03/18 09:51:00;;;;;;;;;3.75;3.25;;;;;21.08;37.48;103479.94;5064859;28;51144;-49
2022/03/18 09:53:26;;;;;;;;;4.50;4.00;;;;;21.10;37.75;103478.75;5058334;28;51115;-48
2022/03/18 09:55:52;;;;;;;;;4.00;3.50;;;;;21.14;37.36;103482.03;5062311;28;51124;-46
2022/03/18 09:58:19;;;;;;;;;4.25;4.00;;;;;21.16;37.15;103482.75;5062256;27;51070;-46
2022/03/18 10:00:46;;;;;;;;;3.75;2.50;;;;;21.19;37.48;103486.03;5058984;27;51282;-51
2022/03/18 10:03:16;;;;;;;;;3.75;2.75;;;;;21.22;37.46;103482.09;5058502;28;51246;-47
2022/03/18 10:05:49;;;;;;;;;3.25;3.25;;;;;21.24;37.08;103488.28;5071943;27;51203;-46
2022/03/18 10:08:17;;;;;;;;;2.00;2.00;;;;;21.25;37.06;103488.13;5055324;28;52825;-46
2022/03/18 10:10:47;;;;;;;;;3.00;3.00;;;;;21.27;37.41;103486.13;5063057;28;51138;-49
2022/03/18 10:13:15;;;;;;;;;2.00;2.00;;;;;21.31;37.10;103500.44;5058022;28;51126;-51
2022/03/18 10:15:40;;;;;;;;;4.75;3.75;;;;;21.32;36.71;103503.03;5063232;28;52885;-45
2022/03/18 10:18:10;;;;;;;;;3.00;3.00;;;;;21.33;36.70;103479.94;5074017;27;51628;-48
2022/03/18 10:20:38;;;;;;;;;3.25;3.25;;;;;21.37;36.78;103485.16;5067902;27;51484;-48
2022/03/18 10:23:05;;;;;;;;;2.75;2.75;;;;;21.37;36.86;103474.97;5065629;27;51093;-49
2022/03/18 10:25:34;;;;;;;;;3.50;3.00;;;;;21.40;37.04;103476.53;5057448;27;51394;-49
2022/03/18 10:28:00;;;;;;;;;3.75;2.75;;;;;21.40;36.63;103480.16;5070784;28;51150;-50
2022/03/18 10:30:26;;;;;;;;;2.25;2.25;;;;;21.41;36.70;103467.22;5069232;27;50976;-51
2022/03/18 10:32:53;;;;;;;;;3.25;2.50;;;;;21.42;37.12;103474.47;5063213;28;51241;-49
2022/03/18 10:38:30;;;;;;;;;5.25;2.00;;;;;21.43;36.51;103462.41;5062759;28;51484;-49
2022/03/18 10:40:56;;;;;;;;;2.50;2.50;;;;;21.44;36.87;103461.38;5065789;28;51493;-49
2022/03/18 10:43:22;;;;;;;;;3.00;3.00;;;;;21.44;36.63;103458.63;5057533;27;51216;-52
2022/03/18 10:46:05;;;;;;;;;2.75;2.50;;;;;21.44;36.54;103459.47;5063446;28;51367;-50
2022/03/18 10:48:31;;;;;;;;;4.00;3.00;;;;;21.44;37.09;103445.69;5063734;27;51782;-48
2022/03/18 10:51:08;;;;;;;;;2.00;1.25;;;;;21.44;36.89;103453.97;5064644;27;51306;-51
2022/03/18 10:53:35;;;;;;;;;4.50;3.25;;;;;21.43;36.53;103446.72;5054230;28;51299;-48
2022/03/18 10:56:02;;;;;;;;;2.50;2.50;;;;;21.44;37.03;103453.09;5062933;28;51379;-44
2022/03/18 10:58:31;;;;;;;;;2.00;2.00;;;;;21.44;37.07;103458.63;5082218;27;51039;-47
2022/03/18 11:01:00;;;;;;;;;4.25;3.00;;;;;21.43;36.58;103454.13;5067890;27;51070;-45
2022/03/18 11:03:26;;;;;;;;;2.00;1.00;;;;;21.42;36.34;103455.16;5067636;28;51183;-46
2022/03/18 11:05:52;;;;;;;;;2.25;2.25;;;;;21.42;36.56;103456.03;5067961;28;51392;-46
2022/03/18 11:08:22;;;;;;;;;0.75;0.75;;;;;21.43;36.92;103454.13;5069261;27;51307;-46
2022/03/18 11:11:07;;;;;;;;;3.25;1.75;;;;;21.43;36.58;103451.38;5065114;27;51077;-47
2022/03/18 11:13:47;;;;;;;;;2.00;2.00;;;;;21.41;36.54;103457.06;5071645;28;51224;-49
2022/03/18 11:16:13;;;;;;;;;2.00;1.75;;;;;21.42;36.55;103446.91;5058342;28;51142;-50
2022/03/18 11:18:40;;;;;;;;;1.75;1.75;;;;;21.41;36.72;103447.94;5065008;28;51152;-47
2022/03/18 11:21:07;;;;;;;;;1.00;1.00;;;;;21.41;36.51;103453.44;5057969;28;51121;-49
2022/03/18 11:23:34;;;;;;;;;1.00;1.00;;;;;21.41;36.83;103436.91;5075109;28;51166;-50
2022/03/18 11:26:02;;;;;;;;;2.00;1.25;;;;;21.40;36.54;103457.22;5069181;27;51297;-49
2022/03/18 11:28:29;;;;;;;;;1.50;1.50;;;;;21.38;36.67;103446.38;5069070;27;51164;-45
2022/03/18 11:31:06;;;;;;;;;1.00;1.00;;;;;21.37;36.45;103446.53;5065730;27;51408;-49
2022/03/18 11:33:34;;;;;;;;;3.25;1.50;;;;;21.36;36.90;103451.16;5067035;27;51154;-45
2022/03/18 11:36:07;;;;;;;;;2.50;1.50;;;;;21.35;36.53;103452.19;5066012;28;50940;-49
2022/03/18 11:38:57;;;;;;;;;2.25;2.25;;;;;21.33;36.72;103452.38;5063397;27;51869;-47
2022/03/18 11:41:45;;;;;;;;;3.00;2.00;;;;;21.32;36.99;103447.88;5058352;28;51235;-49
2022/03/18 11:44:11;;;;;;;;;2.00;2.00;;;;;21.31;36.83;103454.44;5066129;27;51164;-48